sensor_id;sensor_type;location;lat;lon;timestamp;P1;durP1;ratioP1;P2;durP2;ratioP2
10041;SDS011;5061;49.068;12.058;2023-05-14T00:01:44;4.40;;;3.87;;
10041;SDS011;5061;49.068;12.058;2023-05-14T00:05:06;5.23;;;4.20;;
10041;SDS011;5061;49.068;12.058;2023-05-14T00:08:27;4.53;;;4.00;;
10041;SDS011;5061;49.068;12.058;2023-05-14T00:11:48;4.70;;;3.80;;
10041;SDS011;5061;49.068;12.058;2023-05-14T00:15:10;3.37;;;3.10;;
10041;SDS011;5061;49.068;12.058;2023-05-14T00:18:31;5.40;;;3.40;;
10041;SDS011;5061;49.068;12.058;2023-05-14T00:21:52;4.10;;;3.30;;
10041;SDS011;5061;49.068;12.058;2023-05-14T00:25:13;4.20;;;3.60;;
10041;SDS011;5061;49.068;12.058;2023-05-14T00:28:34;3.60;;;3.23;;
10041;SDS011;5061;49.068;12.058;2023-05-14T00:31:55;3.67;;;3.23;;
10041;SDS011;5061;49.068;12.058;2023-05-14T00:35:18;5.00;;;4.03;;
10041;SDS011;5061;49.068;12.058;2023-05-14T00:38:40;3.40;;;3.10;;
10041;SDS011;5061;49.068;12.058;2023-05-14T00:42:05;3.97;;;3.40;;
10041;SDS011;5061;49.068;12.058;2023-05-14T00:45:26;3.67;;;3.27;;
10041;SDS011;5061;49.068;12.058;2023-05-14T00:48:48;4.10;;;3.70;;
10041;SDS011;5061;49.068;12.058;2023-05-14T00:52:09;4.63;;;2.97;;
10041;SDS011;5061;49.068;12.058;2023-05-14T00:55:37;4.33;;;3.93;;
10041;SDS011;5061;49.068;12.058;2023-05-14T00:59:01;3.83;;;3.43;;
10041;SDS011;5061;49.068;12.058;2023-05-14T01:02:23;4.27;;;3.87;;
10041;SDS011;5061;49.068;12.058;2023-05-14T01:12:39;3.73;;;3.33;;
10041;SDS011;5061;49.068;12.058;2023-05-14T01:16:17;4.10;;;2.93;;
10041;SDS011;5061;49.068;12.058;2023-05-14T01:19:42;4.23;;;3.10;;
10041;SDS011;5061;49.068;12.058;2023-05-14T01:23:07;3.10;;;2.80;;
10041;SDS011;5061;49.068;12.058;2023-05-14T01:26:28;3.67;;;2.50;;
10041;SDS011;5061;49.068;12.058;2023-05-14T01:30:02;3.43;;;3.13;;
10041;SDS011;5061;49.068;12.058;2023-05-14T01:33:44;3.70;;;3.07;;
10041;SDS011;5061;49.068;12.058;2023-05-14T01:37:07;3.30;;;3.00;;
10041;SDS011;5061;49.068;12.058;2023-05-14T01:40:31;3.57;;;3.27;;
10041;SDS011;5061;49.068;12.058;2023-05-14T01:43:54;2.80;;;2.50;;
10041;SDS011;5061;49.068;12.058;2023-05-14T01:47:16;3.37;;;3.07;;
10041;SDS011;5061;49.068;12.058;2023-05-14T01:50:37;3.30;;;2.67;;
10041;SDS011;5061;49.068;12.058;2023-05-14T01:53:58;4.30;;;3.60;;
10041;SDS011;5061;49.068;12.058;2023-05-14T01:57:19;4.30;;;3.90;;
10041;SDS011;5061;49.068;12.058;2023-05-14T02:00:40;4.30;;;3.80;;
10041;SDS011;5061;49.068;12.058;2023-05-14T02:04:02;3.60;;;3.07;;
10041;SDS011;5061;49.068;12.058;2023-05-14T02:07:23;4.10;;;3.40;;
10041;SDS011;5061;49.068;12.058;2023-05-14T02:10:45;4.23;;;3.40;;
10041;SDS011;5061;49.068;12.058;2023-05-14T02:14:06;4.27;;;3.63;;
10041;SDS011;5061;49.068;12.058;2023-05-14T02:17:27;7.13;;;4.73;;
10041;SDS011;5061;49.068;12.058;2023-05-14T02:20:48;5.43;;;4.37;;
10041;SDS011;5061;49.068;12.058;2023-05-14T02:24:09;6.50;;;5.30;;
10041;SDS011;5061;49.068;12.058;2023-05-14T02:27:31;5.30;;;4.80;;
10041;SDS011;5061;49.068;12.058;2023-05-14T02:30:57;7.00;;;5.53;;
10041;SDS011;5061;49.068;12.058;2023-05-14T02:34:19;5.60;;;4.63;;
10041;SDS011;5061;49.068;12.058;2023-05-14T02:37:40;4.80;;;4.00;;
10041;SDS011;5061;49.068;12.058;2023-05-14T02:41:01;5.20;;;4.10;;
10041;SDS011;5061;49.068;12.058;2023-05-14T02:44:22;5.27;;;4.00;;
10041;SDS011;5061;49.068;12.058;2023-05-14T02:47:44;5.03;;;4.30;;
10041;SDS011;5061;49.068;12.058;2023-05-14T02:51:05;6.03;;;5.10;;
10041;SDS011;5061;49.068;12.058;2023-05-14T02:54:28;5.90;;;4.73;;
10041;SDS011;5061;49.068;12.058;2023-05-14T02:57:49;5.13;;;4.17;;
10041;SDS011;5061;49.068;12.058;2023-05-14T03:01:12;6.10;;;5.23;;
10041;SDS011;5061;49.068;12.058;2023-05-14T03:04:33;5.47;;;4.67;;
10041;SDS011;5061;49.068;12.058;2023-05-14T03:07:54;8.37;;;5.23;;
10041;SDS011;5061;49.068;12.058;2023-05-14T03:11:15;6.00;;;5.10;;
10041;SDS011;5061;49.068;12.058;2023-05-14T03:14:45;6.97;;;5.27;;
10041;SDS011;5061;49.068;12.058;2023-05-14T03:18:06;7.97;;;5.10;;
10041;SDS011;5061;49.068;12.058;2023-05-14T03:21:27;7.40;;;5.33;;
10041;SDS011;5061;49.068;12.058;2023-05-14T03:24:48;7.57;;;6.03;;
10041;SDS011;5061;49.068;12.058;2023-05-14T03:28:09;5.53;;;4.93;;
10041;SDS011;5061;49.068;12.058;2023-05-14T03:31:30;8.73;;;5.70;;
10041;SDS011;5061;49.068;12.058;2023-05-14T03:34:51;9.30;;;5.60;;
10041;SDS011;5061;49.068;12.058;2023-05-14T03:38:12;6.53;;;5.00;;
10041;SDS011;5061;49.068;12.058;2023-05-14T03:41:36;7.00;;;5.47;;
10041;SDS011;5061;49.068;12.058;2023-05-14T03:44:58;6.80;;;5.47;;
10041;SDS011;5061;49.068;12.058;2023-05-14T03:48:19;7.27;;;5.90;;
10041;SDS011;5061;49.068;12.058;2023-05-14T03:51:40;7.83;;;5.67;;
10041;SDS011;5061;49.068;12.058;2023-05-14T03:55:02;8.23;;;6.20;;
10041;SDS011;5061;49.068;12.058;2023-05-14T03:58:23;8.83;;;6.23;;
10041;SDS011;5061;49.068;12.058;2023-05-14T04:01:45;7.20;;;5.80;;
10041;SDS011;5061;49.068;12.058;2023-05-14T04:05:06;7.80;;;5.80;;
10041;SDS011;5061;49.068;12.058;2023-05-14T04:08:27;6.20;;;5.23;;
10041;SDS011;5061;49.068;12.058;2023-05-14T04:11:48;7.80;;;5.80;;
10041;SDS011;5061;49.068;12.058;2023-05-14T04:15:10;7.53;;;5.43;;
10041;SDS011;5061;49.068;12.058;2023-05-14T04:18:31;6.77;;;4.93;;
10041;SDS011;5061;49.068;12.058;2023-05-14T04:21:54;6.57;;;5.00;;
10041;SDS011;5061;49.068;12.058;2023-05-14T04:25:15;6.30;;;5.23;;
10041;SDS011;5061;49.068;12.058;2023-05-14T04:28:37;7.70;;;5.50;;
10041;SDS011;5061;49.068;12.058;2023-05-14T04:31:58;7.53;;;5.70;;
10041;SDS011;5061;49.068;12.058;2023-05-14T04:35:20;7.50;;;5.90;;
10041;SDS011;5061;49.068;12.058;2023-05-14T04:38:41;5.80;;;4.40;;
10041;SDS011;5061;49.068;12.058;2023-05-14T04:42:03;5.47;;;4.43;;
10041;SDS011;5061;49.068;12.058;2023-05-14T04:45:24;6.60;;;5.00;;
10041;SDS011;5061;49.068;12.058;2023-05-14T04:48:45;6.10;;;5.13;;
10041;SDS011;5061;49.068;12.058;2023-05-14T04:52:07;8.23;;;5.03;;
10041;SDS011;5061;49.068;12.058;2023-05-14T04:55:29;8.03;;;5.13;;
10041;SDS011;5061;49.068;12.058;2023-05-14T04:58:51;7.30;;;5.40;;
10041;SDS011;5061;49.068;12.058;2023-05-14T05:02:12;4.73;;;4.17;;
10041;SDS011;5061;49.068;12.058;2023-05-14T05:05:33;5.60;;;4.60;;
10041;SDS011;5061;49.068;12.058;2023-05-14T05:08:54;6.73;;;5.37;;
10041;SDS011;5061;49.068;12.058;2023-05-14T05:12:16;5.20;;;4.53;;
10041;SDS011;5061;49.068;12.058;2023-05-14T05:15:37;5.33;;;4.13;;
10041;SDS011;5061;49.068;12.058;2023-05-14T05:19:01;4.73;;;3.93;;
10041;SDS011;5061;49.068;12.058;2023-05-14T05:22:22;5.03;;;4.00;;
10041;SDS011;5061;49.068;12.058;2023-05-14T05:25:43;6.03;;;4.50;;
10041;SDS011;5061;49.068;12.058;2023-05-14T05:29:06;5.87;;;3.97;;
10041;SDS011;5061;49.068;12.058;2023-05-14T05:32:28;4.67;;;4.10;;
10041;SDS011;5061;49.068;12.058;2023-05-14T05:35:50;4.27;;;3.87;;
10041;SDS011;5061;49.068;12.058;2023-05-14T05:39:11;5.63;;;4.40;;
10041;SDS011;5061;49.068;12.058;2023-05-14T05:42:32;5.17;;;4.10;;
10041;SDS011;5061;49.068;12.058;2023-05-14T05:45:54;4.57;;;4.10;;
10041;SDS011;5061;49.068;12.058;2023-05-14T05:49:15;6.70;;;5.07;;
10041;SDS011;5061;49.068;12.058;2023-05-14T05:52:36;7.70;;;5.20;;
10041;SDS011;5061;49.068;12.058;2023-05-14T05:55:58;6.43;;;4.90;;
10041;SDS011;5061;49.068;12.058;2023-05-14T05:59:23;4.93;;;4.10;;
10041;SDS011;5061;49.068;12.058;2023-05-14T06:02:44;5.80;;;4.60;;
10041;SDS011;5061;49.068;12.058;2023-05-14T06:06:06;6.40;;;5.03;;
10041;SDS011;5061;49.068;12.058;2023-05-14T06:09:29;6.63;;;4.70;;
10041;SDS011;5061;49.068;12.058;2023-05-14T06:12:55;5.83;;;4.20;;
10041;SDS011;5061;49.068;12.058;2023-05-14T06:16:19;4.63;;;3.70;;
10041;SDS011;5061;49.068;12.058;2023-05-14T06:19:40;4.20;;;3.53;;
10041;SDS011;5061;49.068;12.058;2023-05-14T06:23:17;4.00;;;3.50;;
10041;SDS011;5061;49.068;12.058;2023-05-14T06:26:38;5.63;;;4.27;;
10041;SDS011;5061;49.068;12.058;2023-05-14T06:30:07;5.93;;;4.00;;
10041;SDS011;5061;49.068;12.058;2023-05-14T06:33:34;4.50;;;3.93;;
10041;SDS011;5061;49.068;12.058;2023-05-14T06:36:55;5.80;;;4.00;;
10041;SDS011;5061;49.068;12.058;2023-05-14T06:40:22;4.70;;;3.60;;
10041;SDS011;5061;49.068;12.058;2023-05-14T06:43:51;4.17;;;3.23;;
10041;SDS011;5061;49.068;12.058;2023-05-14T06:47:38;3.60;;;3.00;;
10041;SDS011;5061;49.068;12.058;2023-05-14T06:51:00;4.50;;;3.23;;
10041;SDS011;5061;49.068;12.058;2023-05-14T06:54:24;3.00;;;2.70;;
10041;SDS011;5061;49.068;12.058;2023-05-14T06:57:47;6.77;;;4.50;;
10041;SDS011;5061;49.068;12.058;2023-05-14T07:01:15;3.87;;;3.17;;
10041;SDS011;5061;49.068;12.058;2023-05-14T07:04:50;5.33;;;4.03;;
10041;SDS011;5061;49.068;12.058;2023-05-14T07:08:10;4.13;;;3.10;;
10041;SDS011;5061;49.068;12.058;2023-05-14T07:11:32;4.30;;;3.20;;
10041;SDS011;5061;49.068;12.058;2023-05-14T07:14:53;3.23;;;2.83;;
10041;SDS011;5061;49.068;12.058;2023-05-14T07:18:16;4.03;;;3.10;;
10041;SDS011;5061;49.068;12.058;2023-05-14T07:21:37;3.07;;;2.67;;
10041;SDS011;5061;49.068;12.058;2023-05-14T07:24:58;5.57;;;3.90;;
10041;SDS011;5061;49.068;12.058;2023-05-14T07:28:24;7.93;;;4.27;;
10041;SDS011;5061;49.068;12.058;2023-05-14T07:31:45;5.73;;;3.80;;
10041;SDS011;5061;49.068;12.058;2023-05-14T07:35:13;4.23;;;3.20;;
10041;SDS011;5061;49.068;12.058;2023-05-14T07:38:33;3.87;;;2.97;;
10041;SDS011;5061;49.068;12.058;2023-05-14T07:41:59;3.93;;;3.00;;
10041;SDS011;5061;49.068;12.058;2023-05-14T07:45:23;2.87;;;2.53;;
10041;SDS011;5061;49.068;12.058;2023-05-14T07:48:46;4.97;;;3.47;;
10041;SDS011;5061;49.068;12.058;2023-05-14T07:52:07;3.20;;;2.90;;
10041;SDS011;5061;49.068;12.058;2023-05-14T07:55:29;2.63;;;2.43;;
10041;SDS011;5061;49.068;12.058;2023-05-14T07:58:52;3.57;;;2.90;;
10041;SDS011;5061;49.068;12.058;2023-05-14T08:02:16;2.30;;;2.10;;
10041;SDS011;5061;49.068;12.058;2023-05-14T08:05:38;2.43;;;2.23;;
10041;SDS011;5061;49.068;12.058;2023-05-14T08:08:59;2.63;;;2.43;;
10041;SDS011;5061;49.068;12.058;2023-05-14T08:12:36;2.47;;;2.27;;
10041;SDS011;5061;49.068;12.058;2023-05-14T08:15:58;2.57;;;2.37;;
10041;SDS011;5061;49.068;12.058;2023-05-14T08:19:19;2.23;;;2.03;;
10041;SDS011;5061;49.068;12.058;2023-05-14T08:22:41;2.40;;;2.20;;
10041;SDS011;5061;49.068;12.058;2023-05-14T08:26:11;2.73;;;2.27;;
10041;SDS011;5061;49.068;12.058;2023-05-14T08:29:50;2.63;;;2.43;;
10041;SDS011;5061;49.068;12.058;2023-05-14T08:37:37;2.10;;;1.90;;
10041;SDS011;5061;49.068;12.058;2023-05-14T08:41:59;2.40;;;2.20;;
10041;SDS011;5061;49.068;12.058;2023-05-14T08:45:48;2.90;;;2.60;;
10041;SDS011;5061;49.068;12.058;2023-05-14T08:49:44;2.50;;;2.30;;
10041;SDS011;5061;49.068;12.058;2023-05-14T08:57:38;2.20;;;2.00;;
10041;SDS011;5061;49.068;12.058;2023-05-14T09:01:03;2.33;;;2.00;;
10041;SDS011;5061;49.068;12.058;2023-05-14T09:04:24;6.20;;;1.97;;
10041;SDS011;5061;49.068;12.058;2023-05-14T09:07:45;2.07;;;1.90;;
10041;SDS011;5061;49.068;12.058;2023-05-14T09:11:06;2.50;;;2.30;;
10041;SDS011;5061;49.068;12.058;2023-05-14T09:14:27;2.67;;;2.43;;
10041;SDS011;5061;49.068;12.058;2023-05-14T09:17:47;2.27;;;2.07;;
10041;SDS011;5061;49.068;12.058;2023-05-14T09:21:08;1.97;;;1.77;;
10041;SDS011;5061;49.068;12.058;2023-05-14T09:24:29;1.80;;;1.53;;
10041;SDS011;5061;49.068;12.058;2023-05-14T09:27:49;1.83;;;1.73;;
10041;SDS011;5061;49.068;12.058;2023-05-14T09:31:10;1.90;;;1.77;;
10041;SDS011;5061;49.068;12.058;2023-05-14T09:34:32;2.50;;;2.30;;
10041;SDS011;5061;49.068;12.058;2023-05-14T09:37:56;2.67;;;1.93;;
10041;SDS011;5061;49.068;12.058;2023-05-14T09:41:16;2.30;;;1.90;;
10041;SDS011;5061;49.068;12.058;2023-05-14T09:44:38;2.07;;;1.97;;
10041;SDS011;5061;49.068;12.058;2023-05-14T09:47:59;2.00;;;1.50;;
10041;SDS011;5061;49.068;12.058;2023-05-14T09:51:20;1.73;;;1.63;;
10041;SDS011;5061;49.068;12.058;2023-05-14T09:54:40;1.90;;;1.80;;
10041;SDS011;5061;49.068;12.058;2023-05-14T09:58:01;2.53;;;2.20;;
10041;SDS011;5061;49.068;12.058;2023-05-14T10:01:22;2.23;;;1.87;;
10041;SDS011;5061;49.068;12.058;2023-05-14T10:04:44;2.00;;;1.80;;
10041;SDS011;5061;49.068;12.058;2023-05-14T10:08:25;2.00;;;1.87;;
10041;SDS011;5061;49.068;12.058;2023-05-14T10:11:50;1.90;;;1.50;;
10041;SDS011;5061;49.068;12.058;2023-05-14T10:15:18;1.43;;;1.33;;
10041;SDS011;5061;49.068;12.058;2023-05-14T10:18:44;1.80;;;1.60;;
10041;SDS011;5061;49.068;12.058;2023-05-14T10:22:10;2.33;;;1.90;;
10041;SDS011;5061;49.068;12.058;2023-05-14T10:25:34;2.30;;;2.00;;
10041;SDS011;5061;49.068;12.058;2023-05-14T10:28:56;2.90;;;2.27;;
10041;SDS011;5061;49.068;12.058;2023-05-14T10:32:17;2.77;;;2.50;;
10041;SDS011;5061;49.068;12.058;2023-05-14T10:35:57;2.43;;;2.20;;
10041;SDS011;5061;49.068;12.058;2023-05-14T10:39:28;2.00;;;1.90;;
10041;SDS011;5061;49.068;12.058;2023-05-14T10:42:59;4.07;;;2.20;;
10041;SDS011;5061;49.068;12.058;2023-05-14T10:46:19;2.20;;;2.00;;
10041;SDS011;5061;49.068;12.058;2023-05-14T10:49:40;2.40;;;2.13;;
10041;SDS011;5061;49.068;12.058;2023-05-14T10:53:02;2.57;;;2.10;;
10041;SDS011;5061;49.068;12.058;2023-05-14T10:56:22;2.43;;;2.23;;
10041;SDS011;5061;49.068;12.058;2023-05-14T10:59:48;2.50;;;2.30;;
10041;SDS011;5061;49.068;12.058;2023-05-14T11:03:13;2.27;;;2.07;;
10041;SDS011;5061;49.068;12.058;2023-05-14T11:06:38;2.57;;;2.37;;
10041;SDS011;5061;49.068;12.058;2023-05-14T11:10:03;1.83;;;1.70;;
10041;SDS011;5061;49.068;12.058;2023-05-14T11:13:29;1.80;;;1.70;;
10041;SDS011;5061;49.068;12.058;2023-05-14T11:16:50;2.00;;;1.87;;
10041;SDS011;5061;49.068;12.058;2023-05-14T11:20:11;2.90;;;2.23;;
10041;SDS011;5061;49.068;12.058;2023-05-14T11:23:31;2.87;;;2.30;;
10041;SDS011;5061;49.068;12.058;2023-05-14T11:26:52;2.47;;;2.10;;
10041;SDS011;5061;49.068;12.058;2023-05-14T11:30:15;2.13;;;1.93;;
10041;SDS011;5061;49.068;12.058;2023-05-14T11:33:37;1.77;;;1.67;;
10041;SDS011;5061;49.068;12.058;2023-05-14T11:37:01;2.10;;;1.90;;
10041;SDS011;5061;49.068;12.058;2023-05-14T11:40:29;2.07;;;1.90;;
10041;SDS011;5061;49.068;12.058;2023-05-14T11:43:49;1.80;;;1.70;;
10041;SDS011;5061;49.068;12.058;2023-05-14T11:47:10;2.30;;;1.70;;
10041;SDS011;5061;49.068;12.058;2023-05-14T11:50:34;1.90;;;1.73;;
10041;SDS011;5061;49.068;12.058;2023-05-14T11:53:55;1.40;;;1.30;;
10041;SDS011;5061;49.068;12.058;2023-05-14T11:57:18;1.80;;;1.70;;
10041;SDS011;5061;49.068;12.058;2023-05-14T12:00:40;1.50;;;1.40;;
10041;SDS011;5061;49.068;12.058;2023-05-14T12:04:04;1.77;;;1.67;;
10041;SDS011;5061;49.068;12.058;2023-05-14T12:07:27;1.80;;;1.70;;
10041;SDS011;5061;49.068;12.058;2023-05-14T12:10:49;1.70;;;1.60;;
10041;SDS011;5061;49.068;12.058;2023-05-14T12:14:10;1.50;;;1.40;;
10041;SDS011;5061;49.068;12.058;2023-05-14T12:17:33;1.60;;;1.50;;
10041;SDS011;5061;49.068;12.058;2023-05-14T12:20:54;1.80;;;1.57;;
10041;SDS011;5061;49.068;12.058;2023-05-14T12:24:16;1.40;;;1.30;;
10041;SDS011;5061;49.068;12.058;2023-05-14T12:27:39;2.13;;;2.00;;
10041;SDS011;5061;49.068;12.058;2023-05-14T12:31:00;2.07;;;1.83;;
10041;SDS011;5061;49.068;12.058;2023-05-14T12:34:21;2.27;;;2.07;;
10041;SDS011;5061;49.068;12.058;2023-05-14T12:37:44;1.57;;;1.47;;
10041;SDS011;5061;49.068;12.058;2023-05-14T12:41:05;1.70;;;1.60;;
10041;SDS011;5061;49.068;12.058;2023-05-14T12:44:26;2.80;;;1.60;;
10041;SDS011;5061;49.068;12.058;2023-05-14T12:47:46;2.20;;;2.00;;
10041;SDS011;5061;49.068;12.058;2023-05-14T12:51:07;2.17;;;1.97;;
10041;SDS011;5061;49.068;12.058;2023-05-14T12:54:28;1.77;;;1.67;;
10041;SDS011;5061;49.068;12.058;2023-05-14T12:57:49;2.13;;;1.93;;
10041;SDS011;5061;49.068;12.058;2023-05-14T13:01:10;2.30;;;2.10;;
10041;SDS011;5061;49.068;12.058;2023-05-14T13:04:31;2.57;;;1.97;;
10041;SDS011;5061;49.068;12.058;2023-05-14T13:07:57;2.80;;;2.53;;
10041;SDS011;5061;49.068;12.058;2023-05-14T13:11:19;2.93;;;2.30;;
10041;SDS011;5061;49.068;12.058;2023-05-14T13:14:40;2.50;;;2.30;;
10041;SDS011;5061;49.068;12.058;2023-05-14T13:18:01;3.57;;;2.83;;
10041;SDS011;5061;49.068;12.058;2023-05-14T13:21:21;2.50;;;2.30;;
10041;SDS011;5061;49.068;12.058;2023-05-14T13:24:42;2.37;;;2.17;;
10041;SDS011;5061;49.068;12.058;2023-05-14T13:28:03;2.63;;;2.43;;
10041;SDS011;5061;49.068;12.058;2023-05-14T13:31:24;2.30;;;2.10;;
10041;SDS011;5061;49.068;12.058;2023-05-14T14:10:08;3.50;;;3.20;;
10041;SDS011;5061;49.068;12.058;2023-05-14T14:13:29;3.30;;;3.00;;
10041;SDS011;5061;49.068;12.058;2023-05-14T14:16:50;2.43;;;2.20;;
10041;SDS011;5061;49.068;12.058;2023-05-14T14:20:10;1.87;;;1.77;;
10041;SDS011;5061;49.068;12.058;2023-05-14T14:23:31;1.80;;;1.70;;
10041;SDS011;5061;49.068;12.058;2023-05-14T14:26:52;2.80;;;1.87;;
10041;SDS011;5061;49.068;12.058;2023-05-14T14:30:13;1.67;;;1.57;;
10041;SDS011;5061;49.068;12.058;2023-05-14T14:33:36;4.10;;;2.20;;
10041;SDS011;5061;49.068;12.058;2023-05-14T14:36:57;1.40;;;1.30;;
10041;SDS011;5061;49.068;12.058;2023-05-14T14:40:18;1.93;;;1.60;;
10041;SDS011;5061;49.068;12.058;2023-05-14T14:43:39;1.93;;;1.53;;
10041;SDS011;5061;49.068;12.058;2023-05-14T14:47:00;1.97;;;1.80;;
10041;SDS011;5061;49.068;12.058;2023-05-14T14:50:20;1.47;;;1.37;;
10041;SDS011;5061;49.068;12.058;2023-05-14T14:53:41;3.20;;;1.63;;
10041;SDS011;5061;49.068;12.058;2023-05-14T14:57:02;1.60;;;1.50;;
10041;SDS011;5061;49.068;12.058;2023-05-14T15:00:22;2.43;;;2.23;;
10041;SDS011;5061;49.068;12.058;2023-05-14T15:03:43;2.63;;;1.70;;
10041;SDS011;5061;49.068;12.058;2023-05-14T15:07:04;1.80;;;1.67;;
10041;SDS011;5061;49.068;12.058;2023-05-14T15:10:28;1.70;;;1.60;;
10041;SDS011;5061;49.068;12.058;2023-05-14T15:13:50;1.70;;;1.60;;
10041;SDS011;5061;49.068;12.058;2023-05-14T15:17:10;1.90;;;1.70;;
10041;SDS011;5061;49.068;12.058;2023-05-14T15:20:31;2.60;;;1.80;;
10041;SDS011;5061;49.068;12.058;2023-05-14T15:23:51;2.77;;;1.47;;
10041;SDS011;5061;49.068;12.058;2023-05-14T15:27:12;10.73;;;2.33;;
10041;SDS011;5061;49.068;12.058;2023-05-14T15:30:33;9.83;;;4.97;;
10041;SDS011;5061;49.068;12.058;2023-05-14T15:33:53;15.70;;;8.37;;
10041;SDS011;5061;49.068;12.058;2023-05-14T15:37:15;10.60;;;5.10;;
10041;SDS011;5061;49.068;12.058;2023-05-14T15:40:35;4.77;;;3.37;;
10041;SDS011;5061;49.068;12.058;2023-05-14T15:43:56;3.33;;;2.50;;
10041;SDS011;5061;49.068;12.058;2023-05-14T15:47:17;2.77;;;2.23;;
10041;SDS011;5061;49.068;12.058;2023-05-14T15:50:38;1.97;;;1.63;;
10041;SDS011;5061;49.068;12.058;2023-05-14T15:53:58;1.90;;;1.70;;
10041;SDS011;5061;49.068;12.058;2023-05-14T15:57:19;1.43;;;1.33;;
10041;SDS011;5061;49.068;12.058;2023-05-14T16:00:40;1.70;;;1.60;;
10041;SDS011;5061;49.068;12.058;2023-05-14T16:04:01;1.63;;;1.40;;
10041;SDS011;5061;49.068;12.058;2023-05-14T16:07:21;1.80;;;1.67;;
10041;SDS011;5061;49.068;12.058;2023-05-14T16:10:42;1.77;;;1.63;;
10041;SDS011;5061;49.068;12.058;2023-05-14T16:14:02;2.07;;;1.37;;
10041;SDS011;5061;49.068;12.058;2023-05-14T16:17:25;2.10;;;1.70;;
10041;SDS011;5061;49.068;12.058;2023-05-14T16:20:46;2.30;;;1.60;;
10041;SDS011;5061;49.068;12.058;2023-05-14T16:24:07;1.50;;;1.40;;
10041;SDS011;5061;49.068;12.058;2023-05-14T16:27:28;1.43;;;1.27;;
10041;SDS011;5061;49.068;12.058;2023-05-14T16:30:49;1.60;;;1.50;;
10041;SDS011;5061;49.068;12.058;2023-05-14T16:34:09;1.33;;;1.23;;
10041;SDS011;5061;49.068;12.058;2023-05-14T16:37:30;1.60;;;1.50;;
10041;SDS011;5061;49.068;12.058;2023-05-14T16:40:51;1.40;;;1.30;;
10041;SDS011;5061;49.068;12.058;2023-05-14T16:44:11;1.37;;;1.27;;
10041;SDS011;5061;49.068;12.058;2023-05-14T16:47:32;1.60;;;1.20;;
10041;SDS011;5061;49.068;12.058;2023-05-14T16:50:53;1.60;;;1.23;;
10041;SDS011;5061;49.068;12.058;2023-05-14T16:54:15;1.20;;;1.10;;
10041;SDS011;5061;49.068;12.058;2023-05-14T16:57:35;1.10;;;1.00;;
10041;SDS011;5061;49.068;12.058;2023-05-14T17:00:56;1.30;;;1.20;;
10041;SDS011;5061;49.068;12.058;2023-05-14T17:04:16;1.40;;;1.30;;
10041;SDS011;5061;49.068;12.058;2023-05-14T17:07:37;1.43;;;1.10;;
10041;SDS011;5061;49.068;12.058;2023-05-14T17:10:58;1.27;;;1.17;;
10041;SDS011;5061;49.068;12.058;2023-05-14T17:14:19;1.73;;;1.23;;
10041;SDS011;5061;49.068;12.058;2023-05-14T17:17:47;1.53;;;1.43;;
10041;SDS011;5061;49.068;12.058;2023-05-14T17:21:08;1.30;;;1.20;;
10041;SDS011;5061;49.068;12.058;2023-05-14T17:24:30;1.53;;;1.43;;
10041;SDS011;5061;49.068;12.058;2023-05-14T17:27:51;1.67;;;1.57;;
10041;SDS011;5061;49.068;12.058;2023-05-14T17:31:12;1.57;;;1.47;;
10041;SDS011;5061;49.068;12.058;2023-05-14T17:34:32;1.60;;;1.50;;
10041;SDS011;5061;49.068;12.058;2023-05-14T17:37:53;1.60;;;1.40;;
10041;SDS011;5061;49.068;12.058;2023-05-14T17:41:14;1.83;;;1.40;;
10041;SDS011;5061;49.068;12.058;2023-05-14T17:44:34;1.67;;;1.57;;
10041;SDS011;5061;49.068;12.058;2023-05-14T17:47:55;1.67;;;1.57;;
10041;SDS011;5061;49.068;12.058;2023-05-14T17:51:16;1.70;;;1.60;;
10041;SDS011;5061;49.068;12.058;2023-05-14T17:54:36;1.77;;;1.67;;
10041;SDS011;5061;49.068;12.058;2023-05-14T17:57:57;1.70;;;1.60;;
10041;SDS011;5061;49.068;12.058;2023-05-14T18:01:18;2.07;;;1.87;;
10041;SDS011;5061;49.068;12.058;2023-05-14T18:04:38;2.27;;;2.00;;
10041;SDS011;5061;49.068;12.058;2023-05-14T18:07:59;2.20;;;2.00;;
10041;SDS011;5061;49.068;12.058;2023-05-14T18:11:20;2.73;;;2.43;;
10041;SDS011;5061;49.068;12.058;2023-05-14T18:14:40;2.00;;;1.80;;
10041;SDS011;5061;49.068;12.058;2023-05-14T18:18:01;2.40;;;2.20;;
10041;SDS011;5061;49.068;12.058;2023-05-14T18:21:22;3.90;;;1.80;;
10041;SDS011;5061;49.068;12.058;2023-05-14T18:24:42;2.50;;;2.30;;
10041;SDS011;5061;49.068;12.058;2023-05-14T18:28:04;2.00;;;1.80;;
10041;SDS011;5061;49.068;12.058;2023-05-14T18:31:25;3.60;;;3.13;;
10041;SDS011;5061;49.068;12.058;2023-05-14T18:34:46;3.33;;;3.03;;
10041;SDS011;5061;49.068;12.058;2023-05-14T18:38:07;3.17;;;2.70;;
10041;SDS011;5061;49.068;12.058;2023-05-14T18:41:27;3.17;;;2.47;;
10041;SDS011;5061;49.068;12.058;2023-05-14T18:44:48;3.17;;;2.67;;
10041;SDS011;5061;49.068;12.058;2023-05-14T18:48:09;2.60;;;2.40;;
10041;SDS011;5061;49.068;12.058;2023-05-14T18:51:29;3.03;;;2.70;;
10041;SDS011;5061;49.068;12.058;2023-05-14T18:54:50;1.80;;;1.70;;
10041;SDS011;5061;49.068;12.058;2023-05-14T18:58:11;2.00;;;1.80;;
10041;SDS011;5061;49.068;12.058;2023-05-14T19:01:33;2.10;;;1.90;;
10041;SDS011;5061;49.068;12.058;2023-05-14T19:04:54;2.07;;;1.80;;
10041;SDS011;5061;49.068;12.058;2023-05-14T19:08:14;3.00;;;1.80;;
10041;SDS011;5061;49.068;12.058;2023-05-14T19:11:35;3.30;;;2.13;;
10041;SDS011;5061;49.068;12.058;2023-05-14T19:14:56;2.60;;;2.30;;
10041;SDS011;5061;49.068;12.058;2023-05-14T19:18:16;2.93;;;2.20;;
10041;SDS011;5061;49.068;12.058;2023-05-14T19:21:37;2.27;;;2.07;;
10041;SDS011;5061;49.068;12.058;2023-05-14T19:24:58;2.30;;;2.10;;
10041;SDS011;5061;49.068;12.058;2023-05-14T19:28:18;2.87;;;2.40;;
10041;SDS011;5061;49.068;12.058;2023-05-14T19:31:39;2.83;;;2.53;;
10041;SDS011;5061;49.068;12.058;2023-05-14T19:35:00;5.10;;;4.13;;
10041;SDS011;5061;49.068;12.058;2023-05-14T19:38:20;12.30;;;8.77;;
10041;SDS011;5061;49.068;12.058;2023-05-14T19:41:41;18.90;;;7.00;;
10041;SDS011;5061;49.068;12.058;2023-05-14T19:45:02;6.67;;;4.80;;
10041;SDS011;5061;49.068;12.058;2023-05-14T19:48:23;9.50;;;4.10;;
10041;SDS011;5061;49.068;12.058;2023-05-14T19:51:43;6.43;;;4.07;;
10041;SDS011;5061;49.068;12.058;2023-05-14T19:55:04;3.50;;;2.80;;
10041;SDS011;5061;49.068;12.058;2023-05-14T19:58:25;5.43;;;2.70;;
10041;SDS011;5061;49.068;12.058;2023-05-14T20:01:45;3.40;;;2.60;;
10041;SDS011;5061;49.068;12.058;2023-05-14T20:05:07;2.57;;;2.37;;
10041;SDS011;5061;49.068;12.058;2023-05-14T20:08:29;2.80;;;2.50;;
10041;SDS011;5061;49.068;12.058;2023-05-14T20:11:50;3.47;;;2.13;;
10041;SDS011;5061;49.068;12.058;2023-05-14T20:15:10;2.33;;;2.13;;
10041;SDS011;5061;49.068;12.058;2023-05-14T20:18:31;2.13;;;1.90;;
10041;SDS011;5061;49.068;12.058;2023-05-14T20:21:52;2.50;;;2.30;;
10041;SDS011;5061;49.068;12.058;2023-05-14T20:25:13;2.80;;;1.90;;
10041;SDS011;5061;49.068;12.058;2023-05-14T20:28:33;1.60;;;1.50;;
10041;SDS011;5061;49.068;12.058;2023-05-14T20:31:54;1.47;;;1.37;;
10041;SDS011;5061;49.068;12.058;2023-05-14T20:35:15;3.10;;;1.50;;
10041;SDS011;5061;49.068;12.058;2023-05-14T20:38:36;2.00;;;1.80;;
10041;SDS011;5061;49.068;12.058;2023-05-14T20:41:57;1.60;;;1.50;;
10041;SDS011;5061;49.068;12.058;2023-05-14T20:45:18;1.73;;;1.50;;
10041;SDS011;5061;49.068;12.058;2023-05-14T20:48:42;1.87;;;1.57;;
10041;SDS011;5061;49.068;12.058;2023-05-14T20:52:02;1.90;;;1.67;;
10041;SDS011;5061;49.068;12.058;2023-05-14T20:55:23;1.53;;;1.43;;
10041;SDS011;5061;49.068;12.058;2023-05-14T20:58:45;2.37;;;1.80;;
10041;SDS011;5061;49.068;12.058;2023-05-14T21:02:06;1.80;;;1.53;;
10041;SDS011;5061;49.068;12.058;2023-05-14T21:05:27;3.03;;;1.93;;
10041;SDS011;5061;49.068;12.058;2023-05-14T21:08:48;1.73;;;1.60;;
10041;SDS011;5061;49.068;12.058;2023-05-14T21:12:08;1.77;;;1.67;;